Time;durP1;ratioP1;P1;durP2;ratioP2;P2;SDS_P1;SDS_P2;PMS_P1;PMS_P2;Temp;Humidity;BMP_temperature;BMP_pressure;BME280_temperature;BME280_humidity;BME280_pressure;Samples;Min_cycle;Max_cycle;Signal;HPM_P1;HPM_P2
2023/11/20 00:02:19;;;;;;;9.10;3.60;;;;;;;;;;5066278;28;20551;-78
2023/11/20 00:04:48;;;;;;;5.40;3.10;;;;;;;;;;5063471;28;20453;-78
2023/11/20 00:07:16;;;;;;;12.97;3.30;;;;;;;;;;5063428;28;20941;-78
2023/11/20 00:09:43;;;;;;;9.63;3.70;;;;;;;;;;5064710;28;20488;-78
2023/11/20 00:12:11;;;;;;;6.77;3.17;;;;;;;;;;5065412;28;20748;-79
2023/11/20 00:14:38;;;;;;;11.90;3.70;;;;;;;;;;5062798;28;20746;-79
2023/11/20 00:17:06;;;;;;;10.97;3.80;;;;;;;;;;5064557;28;20568;-78
2023/11/20 00:19:36;;;;;;;8.63;3.00;;;;;;;;;;5065099;28;20557;-79
2023/11/20 00:22:05;;;;;;;5.80;3.17;;;;;;;;;;5064624;28;20453;-80
2023/11/20 00:24:33;;;;;;;6.23;2.67;;;;;;;;;;5064694;28;20503;-78
2023/11/20 00:27:00;;;;;;;8.67;3.03;;;;;;;;;;5066013;28;20453;-78
2023/11/20 00:29:28;;;;;;;5.37;2.50;;;;;;;;;;5067609;28;20489;-78
2023/11/20 00:31:55;;;;;;;7.50;3.10;;;;;;;;;;5070340;28;20895;-79
2023/11/20 00:34:23;;;;;;;6.40;3.03;;;;;;;;;;5066913;28;20453;-79
2023/11/20 00:36:50;;;;;;;5.97;2.83;;;;;;;;;;5068928;28;20454;-78
2023/11/20 00:39:20;;;;;;;7.03;3.10;;;;;;;;;;5064260;28;20528;-78
2023/11/20 00:41:47;;;;;;;5.10;3.20;;;;;;;;;;5065207;28;20488;-78
2023/11/20 00:44:15;;;;;;;8.70;3.30;;;;;;;;;;5068777;28;20453;-78
2023/11/20 00:46:42;;;;;;;5.10;2.50;;;;;;;;;;5067643;28;20466;-78
2023/11/20 00:49:10;;;;;;;6.73;3.10;;;;;;;;;;5067659;28;20481;-79
2023/11/20 00:51:37;;;;;;;12.30;3.50;;;;;;;;;;5065722;28;20457;-78
2023/11/20 00:54:06;;;;;;;5.60;3.30;;;;;;;;;;5068028;28;20473;-79
2023/11/20 00:56:35;;;;;;;6.13;2.60;;;;;;;;;;5065928;28;20801;-78
2023/11/20 00:59:07;;;;;;;5.40;3.40;;;;;;;;;;5064670;28;20833;-79
2023/11/20 01:01:37;;;;;;;6.93;3.00;;;;;;;;;;5067159;28;20492;-79
2023/11/20 01:04:07;;;;;;;11.50;3.70;;;;;;;;;;5064801;28;20450;-78
2023/11/20 01:06:39;;;;;;;4.43;2.63;;;;;;;;;;5065446;28;20445;-78
2023/11/20 01:09:07;;;;;;;10.33;2.87;;;;;;;;;;5067191;28;20554;-78
2023/11/20 01:11:36;;;;;;;8.63;3.10;;;;;;;;;;5069365;28;20470;-79
2023/11/20 01:14:05;;;;;;;7.87;3.20;;;;;;;;;;5067489;28;20488;-79
2023/11/20 01:16:33;;;;;;;10.47;3.20;;;;;;;;;;5069867;28;20483;-78
2023/11/20 01:19:00;;;;;;;13.77;3.77;;;;;;;;;;5068609;28;20468;-78
2023/11/20 01:21:28;;;;;;;9.10;3.10;;;;;;;;;;5068356;28;20540;-78
2023/11/20 01:23:55;;;;;;;9.20;2.87;;;;;;;;;;5067426;28;20449;-78
2023/11/20 01:26:23;;;;;;;8.37;3.03;;;;;;;;;;5067350;28;20457;-79
2023/11/20 01:28:53;;;;;;;4.17;2.60;;;;;;;;;;5066220;28;20591;-78
2023/11/20 01:31:20;;;;;;;11.07;3.00;;;;;;;;;;5066372;28;20859;-78
2023/11/20 01:33:48;;;;;;;7.67;3.40;;;;;;;;;;5067838;28;20449;-78
2023/11/20 01:36:16;;;;;;;4.67;3.07;;;;;;;;;;5063294;28;20418;-79
2023/11/20 01:38:43;;;;;;;8.20;2.73;;;;;;;;;;5066031;28;20453;-78
2023/11/20 01:41:11;;;;;;;12.67;3.00;;;;;;;;;;5064745;28;20468;-78
2023/11/20 01:43:38;;;;;;;6.37;2.90;;;;;;;;;;5062991;28;20458;-78
2023/11/20 01:46:10;;;;;;;10.33;2.37;;;;;;;;;;5065832;28;20536;-80
2023/11/20 01:48:38;;;;;;;5.40;3.03;;;;;;;;;;5062134;28;20554;-78
2023/11/20 01:51:06;;;;;;;6.63;3.83;;;;;;;;;;5062073;28;20488;-78
2023/11/20 01:53:34;;;;;;;8.13;2.80;;;;;;;;;;5063205;28;20463;-79
2023/11/20 01:56:03;;;;;;;6.60;2.97;;;;;;;;;;5064232;28;20493;-78
2023/11/20 01:58:31;;;;;;;6.87;2.63;;;;;;;;;;5063482;28;20511;-79
2023/11/20 02:00:59;;;;;;;4.30;2.37;;;;;;;;;;5062267;28;20449;-77
2023/11/20 02:03:28;;;;;;;6.27;2.67;;;;;;;;;;5061073;28;20446;-77
2023/11/20 02:05:59;;;;;;;7.77;2.60;;;;;;;;;;5061676;28;20875;-79
2023/11/20 02:08:28;;;;;;;8.07;2.57;;;;;;;;;;5065542;28;20485;-78
2023/11/20 02:10:56;;;;;;;5.70;3.23;;;;;;;;;;5064469;28;20449;-78
2023/11/20 02:13:22;;;;;;;4.70;2.83;;;;;;;;;;5063840;28;20458;-78
2023/11/20 02:15:50;;;;;;;8.43;2.50;;;;;;;;;;5065377;28;20485;-77
2023/11/20 02:18:33;;;;;;;5.30;2.73;;;;;;;;;;5063585;28;20456;-78
2023/11/20 02:21:01;;;;;;;5.83;2.60;;;;;;;;;;5064173;28;20460;-77
2023/11/20 02:23:28;;;;;;;5.23;2.40;;;;;;;;;;5065896;28;20460;-78
2023/11/20 02:26:03;;;;;;;6.23;2.27;;;;;;;;;;5066870;28;20495;-78
2023/11/20 02:28:37;;;;;;;4.10;2.33;;;;;;;;;;5063242;28;20515;-78
2023/11/20 02:31:06;;;;;;;4.90;2.77;;;;;;;;;;5065628;28;20452;-78
2023/11/20 02:33:35;;;;;;;4.30;2.20;;;;;;;;;;5065588;28;20711;-79
2023/11/20 02:36:03;;;;;;;8.23;3.17;;;;;;;;;;5065583;28;20469;-78
2023/11/20 02:38:31;;;;;;;6.03;2.70;;;;;;;;;;5065179;28;20487;-78
2023/11/20 02:40:58;;;;;;;8.17;2.63;;;;;;;;;;5065099;28;20468;-78
2023/11/20 02:43:27;;;;;;;4.70;2.50;;;;;;;;;;5064282;28;20540;-79
2023/11/20 02:45:57;;;;;;;4.00;2.43;;;;;;;;;;5064935;28;20536;-79
2023/11/20 02:48:29;;;;;;;5.23;2.30;;;;;;;;;;5064999;28;20465;-80
2023/11/20 02:50:56;;;;;;;5.07;2.40;;;;;;;;;;5064481;28;21124;-79
2023/11/20 02:53:24;;;;;;;3.87;1.93;;;;;;;;;;5064273;28;20473;-79
2023/11/20 02:55:51;;;;;;;8.67;2.37;;;;;;;;;;5065521;28;20476;-79
2023/11/20 02:58:18;;;;;;;4.60;2.23;;;;;;;;;;5065119;28;20464;-78
2023/11/20 03:00:46;;;;;;;4.03;1.93;;;;;;;;;;5063713;28;20496;-78
2023/11/20 03:03:14;;;;;;;5.70;1.93;;;;;;;;;;5063659;28;20665;-78
2023/11/20 03:05:51;;;;;;;3.80;2.03;;;;;;;;;;5062835;28;20522;-78
2023/11/20 03:08:18;;;;;;;3.57;1.80;;;;;;;;;;5062738;28;20458;-78
2023/11/20 03:10:46;;;;;;;5.13;1.87;;;;;;;;;;5062839;28;20683;-78
2023/11/20 03:13:13;;;;;;;5.43;1.63;;;;;;;;;;5062128;28;20458;-78
2023/11/20 03:15:48;;;;;;;3.20;1.60;;;;;;;;;;5063700;28;20473;-79
2023/11/20 03:18:15;;;;;;;5.60;2.20;;;;;;;;;;5072470;28;20448;-79
2023/11/20 03:20:44;;;;;;;3.73;2.13;;;;;;;;;;5072632;28;20442;-78
2023/11/20 03:23:13;;;;;;;4.00;2.23;;;;;;;;;;5072151;28;20453;-78
2023/11/20 03:25:46;;;;;;;3.43;2.10;;;;;;;;;;5071044;28;20503;-79
2023/11/20 03:28:15;;;;;;;4.27;2.70;;;;;;;;;;5072046;28;20625;-78
2023/11/20 03:30:50;;;;;;;4.37;1.97;;;;;;;;;;5073648;28;20504;-78
2023/11/20 03:33:18;;;;;;;3.33;2.00;;;;;;;;;;5074906;28;20459;-78
2023/11/20 03:35:50;;;;;;;4.43;1.70;;;;;;;;;;5073041;28;20499;-78
2023/11/20 03:38:17;;;;;;;3.07;1.70;;;;;;;;;;5072171;28;20463;-78
2023/11/20 03:40:45;;;;;;;3.30;1.93;;;;;;;;;;5070681;28;20467;-78
2023/11/20 03:43:12;;;;;;;4.17;2.13;;;;;;;;;;5065200;28;20494;-77
2023/11/20 03:45:40;;;;;;;4.97;1.60;;;;;;;;;;5064778;28;20436;-79
2023/11/20 03:48:07;;;;;;;3.40;1.80;;;;;;;;;;5065868;28;20437;-79
2023/11/20 03:50:35;;;;;;;3.37;1.70;;;;;;;;;;5064523;28;20488;-78
2023/11/20 03:53:04;;;;;;;3.10;2.07;;;;;;;;;;5062039;28;20469;-77
2023/11/20 03:55:31;;;;;;;4.60;2.10;;;;;;;;;;5062425;28;20457;-79
2023/11/20 03:57:58;;;;;;;3.97;3.00;;;;;;;;;;5066536;28;20487;-79
2023/11/20 04:00:26;;;;;;;3.13;1.77;;;;;;;;;;5065551;28;20442;-79
2023/11/20 04:02:53;;;;;;;4.90;2.87;;;;;;;;;;5064518;28;20429;-78
2023/11/20 04:05:21;;;;;;;4.80;2.33;;;;;;;;;;5063762;28;20458;-79
2023/11/20 04:07:49;;;;;;;4.30;2.03;;;;;;;;;;5066092;28;20460;-78
2023/11/20 04:10:18;;;;;;;3.83;2.07;;;;;;;;;;5065644;28;20638;-79
2023/11/20 04:12:46;;;;;;;5.27;2.00;;;;;;;;;;5069219;28;20496;-79
2023/11/20 04:15:14;;;;;;;4.77;2.70;;;;;;;;;;5068755;28;20481;-79
2023/11/20 04:17:47;;;;;;;3.97;2.37;;;;;;;;;;5067508;28;20504;-79
2023/11/20 04:20:17;;;;;;;4.10;2.13;;;;;;;;;;5067050;28;20525;-78
2023/11/20 04:22:45;;;;;;;3.83;2.40;;;;;;;;;;5068068;28;20496;-79
2023/11/20 04:25:12;;;;;;;8.17;3.60;;;;;;;;;;5068688;28;20470;-79
2023/11/20 04:27:41;;;;;;;5.87;2.40;;;;;;;;;;5065289;28;20481;-79
2023/11/20 04:30:09;;;;;;;4.90;2.50;;;;;;;;;;5067195;28;20485;-79
2023/11/20 04:32:37;;;;;;;4.30;2.53;;;;;;;;;;5066901;28;20827;-79
2023/11/20 04:35:05;;;;;;;5.70;2.80;;;;;;;;;;5065433;28;20462;-79
2023/11/20 04:37:32;;;;;;;9.13;2.90;;;;;;;;;;5065843;28;20458;-78
2023/11/20 04:40:00;;;;;;;6.10;3.50;;;;;;;;;;5065576;28;20463;-79
2023/11/20 04:42:28;;;;;;;4.83;2.17;;;;;;;;;;5066568;28;20894;-79
2023/11/20 04:44:57;;;;;;;8.03;3.03;;;;;;;;;;5064458;28;20515;-79
2023/11/20 04:47:24;;;;;;;5.80;2.67;;;;;;;;;;5067179;28;20462;-79
2023/11/20 04:49:52;;;;;;;5.07;3.17;;;;;;;;;;5065521;28;20980;-79
2023/11/20 04:52:19;;;;;;;4.23;2.57;;;;;;;;;;5064438;28;20460;-79
2023/11/20 04:54:47;;;;;;;5.03;3.13;;;;;;;;;;5062171;28;20559;-79
2023/11/20 04:57:15;;;;;;;4.70;3.30;;;;;;;;;;5063507;28;20637;-79
2023/11/20 04:59:42;;;;;;;4.43;3.20;;;;;;;;;;5062866;28;20465;-78
2023/11/20 05:02:12;;;;;;;6.23;4.27;;;;;;;;;;5062750;28;20739;-78
2023/11/20 05:04:39;;;;;;;5.73;3.60;;;;;;;;;;5064565;28;20449;-79
2023/11/20 05:07:08;;;;;;;7.37;4.07;;;;;;;;;;5063987;28;20537;-79
2023/11/20 05:09:36;;;;;;;6.00;4.10;;;;;;;;;;5063184;28;20523;-77
2023/11/20 05:12:03;;;;;;;7.93;4.40;;;;;;;;;;5062951;28;20446;-79
2023/11/20 05:14:31;;;;;;;8.53;4.40;;;;;;;;;;5063195;28;20457;-79
2023/11/20 05:16:59;;;;;;;6.70;4.03;;;;;;;;;;5064088;28;20552;-79
2023/11/20 05:19:27;;;;;;;6.60;3.83;;;;;;;;;;5065703;28;20445;-79
2023/11/20 05:21:55;;;;;;;6.20;4.20;;;;;;;;;;5065940;28;20551;-79
2023/11/20 05:24:24;;;;;;;8.47;4.80;;;;;;;;;;5066026;28;20449;-78
2023/11/20 05:26:52;;;;;;;10.70;5.77;;;;;;;;;;5064829;28;20484;-79
2023/11/20 05:29:19;;;;;;;6.70;5.00;;;;;;;;;;5059698;28;20784;-78
2023/11/20 05:31:47;;;;;;;6.43;5.07;;;;;;;;;;5064953;28;20750;-79
2023/11/20 05:34:14;;;;;;;7.10;4.70;;;;;;;;;;5062758;28;20453;-79
2023/11/20 05:36:43;;;;;;;13.00;5.83;;;;;;;;;;5064192;28;20445;-79
2023/11/20 05:39:11;;;;;;;7.60;4.97;;;;;;;;;;5064505;28;20477;-79
2023/11/20 05:41:38;;;;;;;9.03;5.50;;;;;;;;;;5062545;28;20449;-78
2023/11/20 05:44:06;;;;;;;8.73;5.57;;;;;;;;;;5062983;28;20457;-78
2023/11/20 05:46:34;;;;;;;7.70;5.27;;;;;;;;;;5062864;28;20453;-78
2023/11/20 05:49:02;;;;;;;9.57;5.27;;;;;;;;;;5061351;28;20519;-78
2023/11/20 05:51:30;;;;;;;9.97;5.77;;;;;;;;;;5061109;28;20487;-78
2023/11/20 05:53:59;;;;;;;11.53;6.13;;;;;;;;;;5060121;28;20605;-78
2023/11/20 05:56:29;;;;;;;9.67;6.40;;;;;;;;;;5061184;28;20469;-78
2023/11/20 05:58:57;;;;;;;11.90;6.80;;;;;;;;;;5061370;28;20473;-78
2023/11/20 06:01:26;;;;;;;10.80;6.67;;;;;;;;;;5062919;28;20488;-79
2023/11/20 06:03:54;;;;;;;11.93;7.17;;;;;;;;;;5065270;28;20523;-79
2023/11/20 06:06:22;;;;;;;18.33;7.43;;;;;;;;;;5064657;28;20461;-79
2023/11/20 06:08:50;;;;;;;15.57;7.87;;;;;;;;;;5062165;28;20458;-79
2023/11/20 06:11:22;;;;;;;12.43;8.47;;;;;;;;;;5062663;28;20623;-79
2023/11/20 06:13:51;;;;;;;13.73;8.80;;;;;;;;;;5060253;28;20457;-78
2023/11/20 06:16:19;;;;;;;12.10;7.30;;;;;;;;;;5059688;28;20460;-79
2023/11/20 06:18:46;;;;;;;14.00;7.30;;;;;;;;;;5056830;28;20460;-78
2023/11/20 06:21:13;;;;;;;14.30;6.53;;;;;;;;;;5052618;28;20470;-76
2023/11/20 06:23:41;;;;;;;12.10;7.03;;;;;;;;;;5051134;28;20449;-78
2023/11/20 06:26:08;;;;;;;12.37;7.20;;;;;;;;;;5058500;28;20453;-78
2023/11/20 06:28:37;;;;;;;9.13;6.40;;;;;;;;;;5060648;28;20477;-78
2023/11/20 06:31:05;;;;;;;11.83;6.70;;;;;;;;;;5058522;28;20487;-78
2023/11/20 06:33:32;;;;;;;15.67;6.93;;;;;;;;;;5052742;28;20441;-77
2023/11/20 06:36:00;;;;;;;13.43;6.10;;;;;;;;;;5050347;28;20871;-78
2023/11/20 06:38:28;;;;;;;8.53;5.53;;;;;;;;;;5051342;28;20449;-77
2023/11/20 06:41:00;;;;;;;12.10;6.70;;;;;;;;;;5054083;28;20449;-79
2023/11/20 06:43:28;;;;;;;10.50;5.87;;;;;;;;;;5053185;28;20457;-78
2023/11/20 06:46:00;;;;;;;9.20;5.53;;;;;;;;;;5053475;28;20492;-78
2023/11/20 06:48:28;;;;;;;10.10;5.50;;;;;;;;;;5053116;28;21038;-78
2023/11/20 06:50:56;;;;;;;10.10;6.27;;;;;;;;;;5056657;28;21163;-78
2023/11/20 06:53:25;;;;;;;8.90;5.70;;;;;;;;;;5059340;28;20514;-77
2023/11/20 06:56:18;;;;;;;10.60;5.90;;;;;;;;;;5056825;28;20520;-78
2023/11/20 06:58:46;;;;;;;12.77;5.93;;;;;;;;;;5037004;28;20451;-78
2023/11/20 07:01:17;;;;;;;9.83;6.30;;;;;;;;;;5047653;28;20697;-78
2023/11/20 07:03:45;;;;;;;9.07;5.93;;;;;;;;;;5058544;28;20443;-78
2023/11/20 07:06:12;;;;;;;9.33;5.60;;;;;;;;;;5060646;28;20445;-78
2023/11/20 07:08:40;;;;;;;10.27;4.93;;;;;;;;;;5059612;28;20484;-77
2023/11/20 07:11:07;;;;;;;9.67;5.10;;;;;;;;;;5060814;28;20489;-78
2023/11/20 07:13:35;;;;;;;9.80;5.80;;;;;;;;;;5062331;28;20450;-78
2023/11/20 07:16:03;;;;;;;7.93;4.90;;;;;;;;;;5061782;28;20468;-78
2023/11/20 07:18:33;;;;;;;9.63;4.90;;;;;;;;;;5061472;28;20453;-78
2023/11/20 07:21:00;;;;;;;10.23;5.40;;;;;;;;;;5052080;28;20462;-78
2023/11/20 07:23:30;;;;;;;7.47;4.83;;;;;;;;;;5036342;28;20957;-78
2023/11/20 07:25:58;;;;;;;9.50;5.23;;;;;;;;;;5039599;28;21069;-78
2023/11/20 07:28:25;;;;;;;9.67;5.97;;;;;;;;;;5036841;28;20489;-77
2023/11/20 07:30:57;;;;;;;7.87;5.00;;;;;;;;;;5046641;28;20481;-78
2023/11/20 07:35:59;;;;;;;8.00;5.60;;;;;;;;;;5068217;28;20533;-78
2023/11/20 07:38:26;;;;;;;10.10;6.00;;;;;;;;;;5068456;28;20463;-78
2023/11/20 07:40:54;;;;;;;9.07;5.80;;;;;;;;;;5063501;28;20461;-78
2023/11/20 07:43:26;;;;;;;11.87;6.90;;;;;;;;;;5054201;28;20652;-78
2023/11/20 07:45:56;;;;;;;11.70;6.97;;;;;;;;;;5056650;28;20500;-79
2023/11/20 07:48:24;;;;;;;12.23;6.47;;;;;;;;;;5063084;28;20457;-78
2023/11/20 07:50:52;;;;;;;11.60;6.67;;;;;;;;;;5065088;28;20519;-78
2023/11/20 07:53:24;;;;;;;14.93;6.50;;;;;;;;;;5063346;28;20449;-78
2023/11/20 07:55:51;;;;;;;10.20;6.57;;;;;;;;;;5063564;28;20547;-77
2023/11/20 07:58:19;;;;;;;10.67;7.60;;;;;;;;;;5061183;28;20457;-77
2023/11/20 08:00:48;;;;;;;12.03;7.43;;;;;;;;;;5060530;28;20453;-78
2023/11/20 08:03:22;;;;;;;8.77;6.03;;;;;;;;;;5063167;28;20455;-78
2023/11/20 08:05:56;;;;;;;9.50;5.50;;;;;;;;;;5059678;28;20491;-77
2023/11/20 08:08:26;;;;;;;8.40;5.57;;;;;;;;;;5060941;28;20720;-77
2023/11/20 08:10:55;;;;;;;10.97;6.40;;;;;;;;;;5065106;28;20469;-77
2023/11/20 08:14:00;;;;;;;11.53;7.37;;;;;;;;;;5063666;28;20446;-77
2023/11/20 08:16:29;;;;;;;11.37;5.80;;;;;;;;;;5040638;28;21071;-78
2023/11/20 08:19:03;;;;;;;10.23;5.30;;;;;;;;;;5042574;28;20489;-77
2023/11/20 08:21:33;;;;;;;13.20;5.80;;;;;;;;;;5060109;28;20453;-77
2023/11/20 08:24:11;;;;;;;8.83;5.60;;;;;;;;;;5060795;28;20450;-78
2023/11/20 08:26:39;;;;;;;9.13;6.60;;;;;;;;;;5066783;28;20449;-79
2023/11/20 08:29:16;;;;;;;10.93;5.50;;;;;;;;;;5056496;28;20667;-78
2023/11/20 08:31:44;;;;;;;7.43;5.60;;;;;;;;;;5054864;28;20525;-78
2023/11/20 08:34:12;;;;;;;9.00;6.10;;;;;;;;;;5063134;28;20524;-79
2023/11/20 08:36:46;;;;;;;9.00;6.20;;;;;;;;;;5063355;28;20442;-78
2023/11/20 08:39:15;;;;;;;6.87;5.00;;;;;;;;;;5063442;28;20457;-80
2023/11/20 08:41:43;;;;;;;13.50;6.50;;;;;;;;;;5062189;28;20464;-78
2023/11/20 08:44:11;;;;;;;9.67;6.90;;;;;;;;;;5062442;28;20979;-78
2023/11/20 08:46:39;;;;;;;10.53;7.23;;;;;;;;;;5059082;28;20521;-79
2023/11/20 08:49:08;;;;;;;9.63;7.00;;;;;;;;;;5061169;28;20477;-78
2023/11/20 08:51:36;;;;;;;11.10;6.10;;;;;;;;;;5062946;28;20491;-78
2023/11/20 08:54:05;;;;;;;8.47;5.40;;;;;;;;;;5042618;28;20466;-78
2023/11/20 08:56:35;;;;;;;8.90;6.13;;;;;;;;;;5044459;28;20460;-78
2023/11/20 08:59:06;;;;;;;6.60;4.30;;;;;;;;;;5037759;28;20430;-77
2023/11/20 09:01:37;;;;;;;7.27;4.53;;;;;;;;;;5039822;28;20443;-79
2023/11/20 09:04:06;;;;;;;9.43;5.37;;;;;;;;;;5039514;28;20473;-77
2023/11/20 09:06:34;;;;;;;9.27;5.77;;;;;;;;;;5037579;28;20749;-77
2023/11/20 09:09:04;;;;;;;7.00;5.80;;;;;;;;;;5042164;28;20600;-77
2023/11/20 09:11:34;;;;;;;9.10;6.20;;;;;;;;;;5039969;28;20774;-78
2023/11/20 09:14:03;;;;;;;8.67;6.90;;;;;;;;;;5045161;28;20488;-78
2023/11/20 09:16:31;;;;;;;12.83;6.90;;;;;;;;;;5041282;28;20462;-80
2023/11/20 09:18:59;;;;;;;8.87;6.17;;;;;;;;;;5044402;28;20887;-78
2023/11/20 09:21:27;;;;;;;9.60;6.07;;;;;;;;;;5043261;28;20461;-79
2023/11/20 09:23:57;;;;;;;6.23;4.97;;;;;;;;;;5038478;28;20458;-76
2023/11/20 09:26:41;;;;;;;9.33;5.33;;;;;;;;;;5048114;28;20474;-78
2023/11/20 09:29:28;;;;;;;7.60;5.77;;;;;;;;;;5039139;28;20454;-77
2023/11/20 09:31:56;;;;;;;7.83;5.67;;;;;;;;;;5040780;28;20500;-77
2023/11/20 09:34:25;;;;;;;8.40;6.10;;;;;;;;;;5038292;28;20462;-77
2023/11/20 09:36:53;;;;;;;8.67;6.50;;;;;;;;;;5040218;28;20450;-78
2023/11/20 09:39:21;;;;;;;9.87;5.17;;;;;;;;;;5043166;28;20446;-77
2023/11/20 09:41:49;;;;;;;8.50;5.83;;;;;;;;;;5038788;28;20445;-77
2023/11/20 09:44:21;;;;;;;6.40;4.57;;;;;;;;;;5035446;28;20538;-77
2023/11/20 09:46:49;;;;;;;11.87;6.90;;;;;;;;;;5038246;28;20466;-78
2023/11/20 09:49:22;;;;;;;8.80;5.87;;;;;;;;;;5036535;28;20443;-76
2023/11/20 09:51:51;;;;;;;7.90;5.53;;;;;;;;;;5034773;28;20462;-78
2023/11/20 09:54:19;;;;;;;6.17;4.50;;;;;;;;;;5043079;28;20733;-78
2023/11/20 09:56:53;;;;;;;8.00;5.53;;;;;;;;;;5041208;28;20454;-79
2023/11/20 09:59:27;;;;;;;7.73;4.73;;;;;;;;;;5031832;28;20466;-77
2023/11/20 10:01:55;;;;;;;6.50;4.87;;;;;;;;;;5037364;28;20454;-77
2023/11/20 10:04:28;;;;;;;8.50;4.87;;;;;;;;;;5030523;28;20463;-78
2023/11/20 10:06:56;;;;;;;5.97;5.10;;;;;;;;;;5031132;28;20453;-78
2023/11/20 10:09:25;;;;;;;5.17;4.20;;;;;;;;;;5038774;28;20492;-77
2023/11/20 10:11:55;;;;;;;10.10;5.00;;;;;;;;;;5043584;28;20501;-79
2023/11/20 10:14:28;;;;;;;8.40;5.77;;;;;;;;;;5041025;28;20888;-78
2023/11/20 10:16:58;;;;;;;5.50;4.30;;;;;;;;;;5048215;28;20532;-78
2023/11/20 10:19:29;;;;;;;27.80;14.60;;;;;;;;;;5042457;28;20517;-78
2023/11/20 10:25:03;;;;;;;17.00;12.67;;;;;;;;;;4293266;26;20482;-76
2023/11/20 10:27:44;;;;;;;10.40;6.80;;;;;;;;;;5049674;28;20473;-77
2023/11/20 10:43:55;;;;;;;8.07;5.90;;;;;;;;;;4213200;27;25613857;-77
2023/11/20 10:46:24;;;;;;;15.77;9.63;;;;;;;;;;5121227;28;20523;-79
2023/11/20 10:48:52;;;;;;;10.70;7.23;;;;;;;;;;5130375;28;20504;-79
2023/11/20 10:51:20;;;;;;;13.97;10.60;;;;;;;;;;5126780;28;20523;-77
2023/11/20 10:53:53;;;;;;;13.57;9.83;;;;;;;;;;5124742;28;20454;-78
2023/11/20 10:56:21;;;;;;;11.77;7.00;;;;;;;;;;5137956;28;20458;-78
2023/11/20 10:58:50;;;;;;;8.97;5.50;;;;;;;;;;5138897;28;20520;-77
2023/11/20 11:01:19;;;;;;;11.67;9.30;;;;;;;;;;5122147;28;20470;-78
2023/11/20 11:03:47;;;;;;;11.30;8.97;;;;;;;;;;5116459;28;20447;-77
2023/11/20 11:06:18;;;;;;;9.27;6.30;;;;;;;;;;5117779;28;20490;-77
2023/11/20 11:08:45;;;;;;;11.10;6.33;;;;;;;;;;5113358;28;20454;-78
2023/11/20 11:11:15;;;;;;;6.33;4.80;;;;;;;;;;5125512;28;20481;-78
2023/11/20 11:13:43;;;;;;;6.70;5.33;;;;;;;;;;5133811;28;20454;-78
2023/11/20 11:16:14;;;;;;;6.20;4.83;;;;;;;;;;5133241;28;20459;-78
2023/11/20 11:18:46;;;;;;;6.60;4.63;;;;;;;;;;5113287;28;20450;-77
2023/11/20 11:21:16;;;;;;;6.50;4.53;;;;;;;;;;5119311;28;20510;-78
2023/11/20 11:23:47;;;;;;;7.37;5.23;;;;;;;;;;5112677;28;20545;-77
2023/11/20 11:26:19;;;;;;;6.87;5.33;;;;;;;;;;5112489;28;21155;-77
2023/11/20 11:28:52;;;;;;;10.97;8.50;;;;;;;;;;5121672;28;20445;-77
2023/11/20 11:31:21;;;;;;;10.60;8.37;;;;;;;;;;5115941;28;21010;-77
2023/11/20 11:34:07;;;;;;;9.90;7.77;;;;;;;;;;5126675;27;20560;-78
2023/11/20 11:36:43;;;;;;;6.77;5.60;;;;;;;;;;5117187;28;20458;-76
2023/11/20 11:39:18;;;;;;;8.30;5.93;;;;;;;;;;5119474;28;20578;-77
2023/11/20 11:41:47;;;;;;;7.63;5.50;;;;;;;;;;5128323;28;20477;-77
2023/11/20 11:44:25;;;;;;;8.40;6.10;;;;;;;;;;5113721;28;20501;-77
2023/11/20 11:46:53;;;;;;;9.73;6.80;;;;;;;;;;5108741;28;20518;-78
2023/11/20 11:49:27;;;;;;;8.80;7.40;;;;;;;;;;5115010;28;20569;-77
2023/11/20 11:52:06;;;;;;;10.43;8.20;;;;;;;;;;5114277;28;20546;-77
2023/11/20 11:54:34;;;;;;;8.47;6.50;;;;;;;;;;5100958;28;20477;-77
2023/11/20 11:57:09;;;;;;;8.73;6.83;;;;;;;;;;5117110;28;20458;-79
2023/11/20 11:59:38;;;;;;;12.70;9.73;;;;;;;;;;5124361;28;20449;-78
2023/11/20 12:02:07;;;;;;;15.50;10.10;;;;;;;;;;5122455;28;20581;-78
2023/11/20 12:04:54;;;;;;;9.73;7.27;;;;;;;;;;5115751;28;20441;-77
2023/11/20 12:10:41;;;;;;;9.90;7.83;;;;;;;;;;5066874;27;3142493;-77
2023/11/20 12:13:16;;;;;;;11.23;9.17;;;;;;;;;;5160050;27;20203;-78
2023/11/20 12:15:49;;;;;;;11.33;8.20;;;;;;;;;;5150039;27;20454;-77
2023/11/20 12:21:10;;;;;;;16.70;11.53;;;;;;;;;;5152636;27;20458;-77
2023/11/20 12:23:50;;;;;;;66.67;45.00;;;;;;;;;;5150146;27;20441;-77
2023/11/20 12:26:34;;;;;;;30.03;22.47;;;;;;;;;;5150204;27;20524;-77
2023/11/20 12:29:18;;;;;;;9.30;7.30;;;;;;;;;;5154524;27;20476;-77
2023/11/20 12:31:47;;;;;;;7.40;6.20;;;;;;;;;;5154116;27;20443;-78
2023/11/20 12:34:14;;;;;;;7.93;6.50;;;;;;;;;;5165488;27;20449;-78
2023/11/20 12:36:49;;;;;;;9.47;6.23;;;;;;;;;;5159254;27;20476;-78
2023/11/20 12:39:19;;;;;;;7.27;6.30;;;;;;;;;;5161853;27;20440;-78
2023/11/20 12:41:49;;;;;;;9.40;6.23;;;;;;;;;;5163005;27;20485;-78
2023/11/20 12:44:17;;;;;;;7.30;5.20;;;;;;;;;;5159976;27;20445;-77
2023/11/20 12:49:56;;;;;;;7.50;5.53;;;;;;;;;;5116837;27;20493;-78
2023/11/20 12:52:25;;;;;;;7.50;5.63;;;;;;;;;;5162333;27;20453;-77
2023/11/20 12:54:54;;;;;;;11.97;8.33;;;;;;;;;;5145890;27;20465;-77
2023/11/20 12:57:23;;;;;;;11.30;7.90;;;;;;;;;;5149076;27;20449;-77
2023/11/20 12:59:51;;;;;;;17.70;10.10;;;;;;;;;;5152986;27;20462;-78
2023/11/20 13:02:24;;;;;;;11.43;7.83;;;;;;;;;;5147175;27;20485;-77
2023/11/20 13:04:53;;;;;;;9.43;6.17;;;;;;;;;;5147354;27;20459;-77
2023/11/20 13:07:22;;;;;;;8.37;4.30;;;;;;;;;;5153678;27;20489;-77
2023/11/20 13:09:53;;;;;;;8.27;5.30;;;;;;;;;;5146643;27;21146;-77
2023/11/20 13:12:21;;;;;;;7.83;5.37;;;;;;;;;;5145165;27;20524;-77
2023/11/20 13:15:00;;;;;;;8.37;4.80;;;;;;;;;;5150087;27;20449;-78
2023/11/20 13:17:29;;;;;;;6.10;3.90;;;;;;;;;;5147208;27;20446;-77
2023/11/20 13:19:57;;;;;;;7.13;4.70;;;;;;;;;;5143289;27;20475;-77
2023/11/20 13:22:43;;;;;;;7.30;4.60;;;;;;;;;;5133855;27;20457;-77
2023/11/20 13:25:32;;;;;;;6.50;4.00;;;;;;;;;;5129022;27;20791;-78
2023/11/20 13:28:16;;;;;;;5.10;3.27;;;;;;;;;;5103184;28;20464;-78
2023/11/20 13:31:19;;;;;;;5.80;4.00;;;;;;;;;;5104889;28;20469;-77
2023/11/20 13:33:54;;;;;;;6.10;3.97;;;;;;;;;;5106703;28;20473;-78
2023/11/20 13:36:25;;;;;;;6.50;4.30;;;;;;;;;;5110370;28;20916;-77
2023/11/20 13:39:07;;;;;;;6.60;3.63;;;;;;;;;;5100341;28;21073;-78
2023/11/20 13:41:35;;;;;;;6.80;3.73;;;;;;;;;;5090494;28;20463;-77
2023/11/20 13:44:03;;;;;;;10.20;6.40;;;;;;;;;;5099378;28;20471;-78
2023/11/20 13:46:36;;;;;;;4.67;3.50;;;;;;;;;;5104811;28;20458;-78
2023/11/20 13:49:07;;;;;;;4.47;2.97;;;;;;;;;;5103414;28;20514;-78
2023/11/20 13:51:36;;;;;;;4.77;3.10;;;;;;;;;;5091620;28;20759;-79
2023/11/20 13:54:05;;;;;;;5.80;4.20;;;;;;;;;;5104266;28;21019;-77
2023/11/20 13:56:40;;;;;;;5.53;2.40;;;;;;;;;;5100193;28;20570;-76
2023/11/20 13:59:10;;;;;;;4.57;2.77;;;;;;;;;;5098913;28;20986;-78
2023/11/20 14:01:40;;;;;;;5.50;3.30;;;;;;;;;;5115433;28;20483;-78
2023/11/20 14:04:07;;;;;;;4.00;2.13;;;;;;;;;;5097196;28;20523;-77
2023/11/20 14:06:35;;;;;;;4.17;2.30;;;;;;;;;;5098241;28;20463;-78
2023/11/20 14:09:03;;;;;;;3.60;2.07;;;;;;;;;;5098932;28;20508;-78
2023/11/20 14:11:30;;;;;;;6.17;2.97;;;;;;;;;;5096742;28;20542;-76
2023/11/20 14:13:58;;;;;;;3.70;2.73;;;;;;;;;;5098385;28;20464;-76
2023/11/20 14:16:29;;;;;;;7.23;3.67;;;;;;;;;;5102204;28;20462;-78
2023/11/20 14:19:04;;;;;;;4.80;3.03;;;;;;;;;;5112755;28;20500;-79
2023/11/20 14:21:44;;;;;;;4.37;2.30;;;;;;;;;;5113325;28;20458;-81
2023/11/20 14:24:16;;;;;;;4.63;2.57;;;;;;;;;;5113307;28;20455;-78
2023/11/20 14:27:14;;;;;;;4.13;2.73;;;;;;;;;;5114923;28;20490;-78
2023/11/20 14:29:45;;;;;;;5.33;3.13;;;;;;;;;;5112428;28;21128;-78
2023/11/20 14:32:13;;;;;;;4.20;2.30;;;;;;;;;;5120708;28;20858;-78
2023/11/20 14:34:47;;;;;;;3.33;1.70;;;;;;;;;;5119897;28;20495;-78
2023/11/20 14:37:21;;;;;;;4.30;2.60;;;;;;;;;;5109377;28;20439;-79
2023/11/20 14:39:53;;;;;;;20.43;14.80;;;;;;;;;;5107713;28;20442;-78
2023/11/20 14:42:26;;;;;;;4.07;2.03;;;;;;;;;;5112051;28;21124;-80
2023/11/20 14:44:59;;;;;;;6.63;4.60;;;;;;;;;;5115588;28;20443;-80
2023/11/20 14:47:30;;;;;;;4.70;3.10;;;;;;;;;;5107972;28;20424;-78
2023/11/20 14:50:08;;;;;;;3.77;2.30;;;;;;;;;;5111898;28;20485;-78
2023/11/20 14:52:37;;;;;;;6.40;2.80;;;;;;;;;;5109360;28;20451;-78
2023/11/20 14:55:12;;;;;;;3.60;1.83;;;;;;;;;;5111962;28;20466;-78
2023/11/20 14:57:42;;;;;;;3.93;1.50;;;;;;;;;;5121085;28;20446;-78
2023/11/20 15:00:14;;;;;;;3.40;1.30;;;;;;;;;;5104929;28;20483;-80
2023/11/20 15:02:43;;;;;;;3.63;1.40;;;;;;;;;;5108967;28;20599;-79
2023/11/20 15:05:14;;;;;;;2.50;1.40;;;;;;;;;;5110983;28;20708;-77
2023/11/20 15:07:42;;;;;;;2.70;1.30;;;;;;;;;;5115236;28;20487;-79
2023/11/20 15:10:10;;;;;;;4.70;1.30;;;;;;;;;;5106431;28;20505;-78
2023/11/20 15:12:38;;;;;;;2.83;1.50;;;;;;;;;;5113862;28;20912;-78
2023/11/20 15:15:06;;;;;;;3.63;1.70;;;;;;;;;;5113847;28;20463;-79
2023/11/20 15:17:38;;;;;;;2.47;1.43;;;;;;;;;;5106274;28;20524;-78
2023/11/20 15:20:22;;;;;;;3.30;1.80;;;;;;;;;;5111006;28;20458;-78
2023/11/20 15:22:53;;;;;;;2.60;1.57;;;;;;;;;;5106765;28;20455;-79
2023/11/20 15:25:29;;;;;;;4.93;1.80;;;;;;;;;;5105109;28;20486;-78